createdAt,value
2022-09-23T00:00:24.561Z,8.24
2022-09-23T00:03:35.346Z,8.19
2022-09-23T00:06:24.515Z,8.12
2022-09-23T00:09:46.507Z,8.04
2022-09-23T00:12:37.367Z,7.86
2022-09-23T00:15:14.400Z,7.78
2022-09-23T00:20:37.979Z,7.78
2022-09-23T00:23:10.714Z,7.76
2022-09-23T00:25:43.865Z,7.71
2022-09-23T00:28:14.482Z,7.68
2022-09-23T00:30:44.883Z,7.69
2022-09-23T00:33:15.160Z,7.73
2022-09-23T00:35:43.529Z,7.75
2022-09-23T00:38:12.034Z,7.76
2022-09-23T00:40:49.769Z,7.75
2022-09-23T00:43:22.729Z,7.75
2022-09-23T00:46:05.345Z,7.73
2022-09-23T00:48:47.374Z,7.72
2022-09-23T00:51:19.843Z,7.64
2022-09-23T00:53:48.049Z,7.60
2022-09-23T00:56:21.008Z,7.55
2022-09-23T00:58:50.643Z,7.53
2022-09-23T01:01:19.676Z,7.53
2022-09-23T01:03:50.476Z,7.49
2022-09-23T01:06:18.541Z,7.46
2022-09-23T01:08:48.565Z,7.45
2022-09-23T01:11:21.325Z,7.48
2022-09-23T01:14:17.140Z,7.51
2022-09-23T01:16:56.656Z,7.58
2022-09-23T01:19:37.397Z,7.62
2022-09-23T01:22:16.773Z,7.56
2022-09-23T01:25:16.741Z,7.54
2022-09-23T01:28:21.246Z,7.48
2022-09-23T01:31:08.134Z,7.45
2022-09-23T01:33:47.181Z,7.46
2022-09-23T01:36:37.058Z,7.47
2022-09-23T01:39:17.126Z,7.45
2022-09-23T01:42:22.242Z,7.37
2022-09-23T01:44:56.645Z,7.20
2022-09-23T01:47:36.144Z,7.05
2022-09-23T01:50:51.201Z,6.94
2022-09-23T01:53:24.888Z,6.86
2022-09-23T01:55:57.961Z,6.85
2022-09-23T01:58:33.822Z,6.88
2022-09-23T02:01:09.904Z,6.93
2022-09-23T02:03:53.084Z,6.96
2022-09-23T02:06:21.992Z,7.08
2022-09-23T02:09:22.201Z,7.09
2022-09-23T02:11:52.642Z,7.05
2022-09-23T02:14:24.597Z,7.01
2022-09-23T02:16:58.253Z,6.98
2022-09-23T02:19:36.282Z,6.89
2022-09-23T02:22:38.247Z,6.83
2022-09-23T02:25:07.874Z,6.83
2022-09-23T02:27:51.919Z,6.84
2022-09-23T02:30:34.843Z,6.86
2022-09-23T02:33:05.061Z,6.82
2022-09-23T02:35:43.518Z,6.81
2022-09-23T02:38:26.821Z,6.76
2022-09-23T02:41:09.651Z,6.75
2022-09-23T02:44:00.066Z,6.79
2022-09-23T02:46:30.315Z,6.80
2022-09-23T02:49:11.233Z,6.77
2022-09-23T02:51:41.040Z,6.73
2022-09-23T02:54:14.976Z,6.75
2022-09-23T02:56:43.389Z,6.81
2022-09-23T02:59:19.458Z,6.83
2022-09-23T03:02:00.539Z,6.79
2022-09-23T03:04:50.451Z,6.67
2022-09-23T03:07:23.817Z,6.59
2022-09-23T03:10:10.836Z,6.57
2022-09-23T03:12:46.111Z,6.57
2022-09-23T03:15:26.415Z,6.59
2022-09-23T03:18:01.544Z,6.57
2022-09-23T03:20:58.360Z,6.58
2022-09-23T03:23:33.680Z,6.62
2022-09-23T03:26:07.463Z,6.59
2022-09-23T03:28:42.090Z,6.59
2022-09-23T03:31:12.325Z,6.60
2022-09-23T03:34:01.757Z,6.56
2022-09-23T03:36:51.625Z,6.52
2022-09-23T03:39:47.977Z,6.53
2022-09-23T03:42:27.110Z,6.55
2022-09-23T03:44:57.955Z,6.58
2022-09-23T03:47:28.906Z,6.61
2022-09-23T03:49:58.206Z,6.62
2022-09-23T03:52:26.878Z,6.64
2022-09-23T03:54:57.921Z,6.56
2022-09-23T03:57:26.114Z,6.46
2022-09-23T03:59:54.139Z,6.38
2022-09-23T04:02:22.458Z,6.33
2022-09-23T04:04:51.548Z,6.28
2022-09-23T04:07:19.627Z,6.24
2022-09-23T04:09:47.862Z,6.25
2022-09-23T04:12:16.645Z,6.28
2022-09-23T04:14:45.430Z,6.29
2022-09-23T04:17:13.507Z,6.33
2022-09-23T04:19:45.179Z,6.34
2022-09-23T04:22:15.906Z,6.33
2022-09-23T04:24:44.684Z,6.31
2022-09-23T04:27:12.872Z,6.30
2022-09-23T04:29:43.651Z,6.30
2022-09-23T04:32:11.882Z,6.29
2022-09-23T04:34:41.286Z,6.29
2022-09-23T04:37:10.378Z,6.32
2022-09-23T04:39:38.321Z,6.34
2022-09-23T04:42:07.657Z,6.37
2022-09-23T04:44:35.910Z,6.43
2022-09-23T04:47:05.569Z,6.44
2022-09-23T04:49:35.932Z,6.43
2022-09-23T04:52:08.371Z,6.43
2022-09-23T04:54:36.984Z,6.42
2022-09-23T04:57:08.334Z,6.40
2022-09-23T04:59:38.760Z,6.36
2022-09-23T05:02:08.539Z,6.28
2022-09-23T05:04:41.488Z,6.27
2022-09-23T05:07:10.666Z,6.33
2022-09-23T05:09:43.739Z,6.36
2022-09-23T05:12:12.226Z,6.38
2022-09-23T05:14:50.169Z,6.41
2022-09-23T05:17:21.994Z,6.41
2022-09-23T05:19:51.714Z,6.45
2022-09-23T05:22:22.059Z,6.48
2022-09-23T05:24:52.042Z,6.55
2022-09-23T05:27:22.582Z,6.61
2022-09-23T05:29:56.281Z,6.67
2022-09-23T05:32:33.456Z,6.71
2022-09-23T05:35:04.813Z,6.77
2022-09-23T05:37:35.146Z,6.85
2022-09-23T05:40:06.163Z,6.96
2022-09-23T05:42:34.978Z,7.04
2022-09-23T05:45:04.667Z,7.11
2022-09-23T05:47:34.619Z,7.14
2022-09-23T05:50:12.326Z,7.26
2022-09-23T05:52:44.857Z,7.35
2022-09-23T05:55:15.573Z,7.40
2022-09-23T05:57:56.983Z,7.46
2022-09-23T06:00:28.496Z,7.57
2022-09-23T06:03:06.235Z,7.71
2022-09-23T06:05:40.526Z,7.83
2022-09-23T06:08:11.805Z,7.94
2022-09-23T06:10:45.478Z,8.06
2022-09-23T06:13:17.970Z,8.15
2022-09-23T06:15:51.514Z,8.26
2022-09-23T06:18:19.722Z,8.37
2022-09-23T06:20:49.162Z,8.48
2022-09-23T06:23:17.002Z,8.61
2022-09-23T06:28:37.834Z,8.83
2022-09-23T06:31:14.290Z,8.92
2022-09-23T06:33:46.052Z,9.04
2022-09-23T06:36:35.953Z,9.18
2022-09-23T06:39:06.955Z,9.34
2022-09-23T06:41:35.722Z,9.50
2022-09-23T06:44:08.921Z,9.68
2022-09-23T06:46:37.029Z,9.84
2022-09-23T06:49:06.959Z,9.99
2022-09-23T06:51:34.989Z,10.15
2022-09-23T06:54:09.122Z,10.30
2022-09-23T06:56:39.505Z,10.47
2022-09-23T06:59:13.141Z,10.61
2022-09-23T07:01:45.319Z,10.68
2022-09-23T07:04:14.651Z,10.73
2022-09-23T07:06:42.654Z,10.81
2022-09-23T07:09:14.349Z,10.91
2022-09-23T07:11:42.393Z,11.05
2022-09-23T07:14:14.180Z,11.19
2022-09-23T07:16:42.731Z,11.31
2022-09-23T07:19:12.285Z,11.42
2022-09-23T07:21:41.634Z,11.47
2022-09-23T07:24:09.659Z,11.49
2022-09-23T07:26:44.894Z,11.56
2022-09-23T07:29:14.648Z,11.73
2022-09-23T07:31:43.350Z,11.89
2022-09-23T07:34:11.753Z,11.97
2022-09-23T07:36:43.058Z,12.11
2022-09-23T07:39:13.773Z,12.22
2022-09-23T07:41:44.620Z,12.29
2022-09-23T07:44:12.917Z,12.43
2022-09-23T07:46:44.811Z,12.61
2022-09-23T07:49:13.677Z,12.76
2022-09-23T07:51:45.970Z,12.87
2022-09-23T07:54:16.384Z,12.96
2022-09-23T07:56:45.140Z,13.03
2022-09-23T07:59:19.347Z,13.12
2022-09-23T08:01:50.631Z,13.24
2022-09-23T08:04:22.126Z,13.42
2022-09-23T08:06:52.281Z,13.58
2022-09-23T08:09:22.093Z,13.59
2022-09-23T08:11:51.066Z,13.64
2022-09-23T08:14:19.649Z,13.75
2022-09-23T08:16:47.746Z,13.88
2022-09-23T08:19:16.513Z,14.04
2022-09-23T08:21:49.398Z,14.20
2022-09-23T08:24:21.021Z,14.36
2022-09-23T08:26:53.325Z,14.44
2022-09-23T08:29:22.935Z,14.57
2022-09-23T08:31:54.183Z,14.76
2022-09-23T08:34:24.022Z,14.96
2022-09-23T08:36:52.490Z,15.12
2022-09-23T08:39:21.687Z,15.24
2022-09-23T08:42:02.459Z,15.42
2022-09-23T08:45:03.170Z,15.56
2022-09-23T08:48:10.823Z,15.78
2022-09-23T08:50:50.719Z,16.07
2022-09-23T08:53:29.963Z,16.29
2022-09-23T08:56:18.408Z,16.47
2022-09-23T08:59:05.510Z,16.66
2022-09-23T09:01:41.869Z,16.91
2022-09-23T09:04:42.401Z,16.90
2022-09-23T09:07:35.172Z,17.09
2022-09-23T09:10:18.683Z,17.37
2022-09-23T09:13:00.476Z,17.58
2022-09-23T09:15:31.162Z,17.75
2022-09-23T09:18:25.608Z,17.96
2022-09-23T09:21:08.520Z,18.31
2022-09-23T09:23:46.482Z,18.63
2022-09-23T09:26:23.004Z,18.89
2022-09-23T09:29:11.413Z,19.15
2022-09-23T09:31:51.304Z,19.41
2022-09-23T09:34:45.671Z,19.65
2022-09-23T09:37:38.418Z,19.76
2022-09-23T09:40:12.921Z,19.95
2022-09-23T09:42:50.027Z,20.06
2022-09-23T09:45:33.530Z,20.23
2022-09-23T09:54:18.213Z,20.91
2022-09-23T09:59:25.715Z,20.80
2022-09-23T10:02:32.730Z,20.86
2022-09-23T10:05:03.241Z,20.76
2022-09-23T10:07:32.759Z,20.67
2022-09-23T10:10:32.292Z,20.69
2022-09-23T10:13:15.051Z,20.62
2022-09-23T10:15:45.021Z,20.41
2022-09-23T10:18:24.730Z,20.61
2022-09-23T10:20:52.599Z,20.47
2022-09-23T10:23:24.371Z,19.96
2022-09-23T10:26:01.141Z,20.11
2022-09-23T10:28:50.357Z,20.13
2022-09-23T10:31:35.642Z,19.64
2022-09-23T10:34:24.706Z,19.20
2022-09-23T10:37:25.229Z,18.89
2022-09-23T10:40:11.844Z,18.64
2022-09-23T10:43:13.307Z,19.07
2022-09-23T10:46:06.629Z,19.12
2022-09-23T10:48:55.966Z,19.01
2022-09-23T10:51:51.607Z,18.86
2022-09-23T10:54:44.253Z,19.06
2022-09-23T10:57:41.680Z,19.24
2022-09-23T11:00:24.962Z,19.67
2022-09-23T11:03:12.902Z,20.15
2022-09-23T11:06:06.777Z,20.38
2022-09-23T11:08:53.699Z,20.50
2022-09-23T11:11:48.901Z,20.53
2022-09-23T11:14:41.030Z,20.78
2022-09-23T11:17:33.589Z,20.58
2022-09-23T11:20:31.206Z,20.97
2022-09-23T11:23:05.697Z,21.38
2022-09-23T11:25:47.157Z,21.22
2022-09-23T11:28:30.184Z,20.95
2022-09-23T11:31:05.720Z,20.81
2022-09-23T11:33:42.505Z,21.27
2022-09-23T11:36:28.530Z,21.29
2022-09-23T11:38:57.253Z,20.93
2022-09-23T11:41:38.547Z,20.97
2022-09-23T11:44:12.591Z,21.25
2022-09-23T11:46:49.419Z,21.59
2022-09-23T11:49:17.215Z,21.72
2022-09-23T11:52:14.403Z,21.38
2022-09-23T11:55:04.673Z,21.42
2022-09-23T11:57:52.925Z,21.98
2022-09-23T12:00:38.435Z,22.58
2022-09-23T12:03:23.545Z,22.95
2022-09-23T12:05:56.690Z,23.23
2022-09-23T12:08:32.353Z,23.51
2022-09-23T12:11:20.301Z,23.86
2022-09-23T12:14:16.422Z,24.22
2022-09-23T12:16:48.709Z,24.40
2022-09-23T12:19:55.481Z,24.32
2022-09-23T12:22:26.652Z,23.90
2022-09-23T12:24:56.881Z,23.88
2022-09-23T12:27:40.234Z,24.05
2022-09-23T12:30:15.186Z,24.26
2022-09-23T12:32:43.462Z,24.23
2022-09-23T12:35:26.957Z,24.41
2022-09-23T12:37:54.834Z,24.74
2022-09-23T12:40:31.089Z,25.11
2022-09-23T12:43:01.205Z,25.17
2022-09-23T12:45:34.830Z,25.00
2022-09-23T12:48:43.745Z,24.86
2022-09-23T12:51:16.351Z,25.00
2022-09-23T12:53:59.766Z,25.15
2022-09-23T12:56:38.625Z,25.16
2022-09-23T12:59:09.449Z,24.47
2022-09-23T13:01:38.047Z,23.96
2022-09-23T13:04:24.616Z,23.48
2022-09-23T13:07:08.836Z,22.89
2022-09-23T13:09:41.576Z,22.61
2022-09-23T13:12:18.816Z,22.58
2022-09-23T13:14:49.746Z,22.29
2022-09-23T13:17:29.817Z,21.86
2022-09-23T13:20:02.756Z,21.94
2022-09-23T13:23:01.795Z,22.58
2022-09-23T13:25:35.058Z,23.43
2022-09-23T13:28:03.834Z,23.24
2022-09-23T13:30:31.646Z,22.88
2022-09-23T13:33:18.833Z,22.65
2022-09-23T13:35:52.403Z,23.20
2022-09-23T13:38:26.214Z,24.04
2022-09-23T13:40:57.599Z,24.80
2022-09-23T13:43:31.839Z,25.49
2022-09-23T13:46:01.016Z,26.14
2022-09-23T13:48:28.885Z,26.85
2022-09-23T13:50:56.918Z,27.44
2022-09-23T13:53:29.262Z,28.08
2022-09-23T13:56:15.921Z,28.49
2022-09-23T13:58:43.720Z,28.44
2022-09-23T14:01:33.778Z,28.78
2022-09-23T14:04:04.904Z,28.95
2022-09-23T14:06:36.039Z,28.47
2022-09-23T14:09:03.901Z,27.46
2022-09-23T14:11:35.407Z,26.79
2022-09-23T14:14:07.416Z,26.26
2022-09-23T14:16:38.154Z,26.66
2022-09-23T14:19:08.086Z,27.77
2022-09-23T14:21:37.774Z,28.47
2022-09-23T14:24:41.467Z,28.55
2022-09-23T14:27:19.043Z,27.96
2022-09-23T14:29:48.222Z,26.96
2022-09-23T14:32:21.247Z,26.29
2022-09-23T14:34:59.503Z,26.01
2022-09-23T14:38:10.612Z,26.45
2022-09-23T14:40:51.344Z,26.90
2022-09-23T14:43:26.199Z,27.02
2022-09-23T14:45:55.938Z,26.16
2022-09-23T14:48:27.360Z,25.58
2022-09-23T14:51:06.624Z,25.38
2022-09-23T14:53:34.444Z,24.75
2022-09-23T14:56:08.473Z,24.41
2022-09-23T14:58:54.734Z,24.28
2022-09-23T15:01:27.728Z,24.02
2022-09-23T15:03:56.151Z,23.76
2022-09-23T15:06:24.791Z,23.49
2022-09-23T15:08:53.398Z,23.25
2022-09-23T15:11:25.272Z,23.10
2022-09-23T15:13:52.951Z,22.99
2022-09-23T15:16:28.006Z,22.81
2022-09-23T15:18:57.870Z,22.55
2022-09-23T15:21:41.036Z,22.21
2022-09-23T15:24:41.394Z,22.06
2022-09-23T15:27:29.339Z,21.68
2022-09-23T15:30:17.082Z,21.21
2022-09-23T15:32:45.798Z,20.78
2022-09-23T15:35:19.150Z,20.46
2022-09-23T15:37:49.275Z,20.27
2022-09-23T15:40:22.659Z,20.04
2022-09-23T15:42:53.793Z,19.73
2022-09-23T15:45:29.308Z,19.34
2022-09-23T15:48:00.984Z,18.92
2022-09-23T15:50:30.235Z,18.55
2022-09-23T15:52:59.475Z,18.24
2022-09-23T15:55:27.494Z,18.05
2022-09-23T15:57:57.170Z,17.81
2022-09-23T16:00:25.362Z,17.55
2022-09-23T16:02:54.072Z,17.39
2022-09-23T16:05:37.002Z,17.27
2022-09-23T16:08:08.937Z,17.18
2022-09-23T16:10:37.805Z,17.08
2022-09-23T16:13:08.877Z,16.97
2022-09-23T16:15:39.105Z,16.83
2022-09-23T16:18:08.627Z,16.71
2022-09-23T16:20:44.723Z,16.56
2022-09-23T16:23:34.463Z,16.44
2022-09-23T16:26:06.330Z,16.33
2022-09-23T16:28:34.493Z,16.23
2022-09-23T16:31:03.095Z,16.13
2022-09-23T16:33:31.007Z,16.04
2022-09-23T16:36:00.897Z,15.96
2022-09-23T16:38:29.558Z,15.86
2022-09-23T16:41:00.176Z,15.75
2022-09-23T16:43:31.719Z,15.64
2022-09-23T16:45:59.644Z,15.52
2022-09-23T16:48:27.488Z,15.38
2022-09-23T16:50:55.277Z,15.26
2022-09-23T16:53:23.567Z,15.12
2022-09-23T16:55:53.474Z,14.97
2022-09-23T16:58:21.317Z,14.89
2022-09-23T17:01:07.921Z,14.79
2022-09-23T17:03:41.972Z,14.67
2022-09-23T17:06:13.517Z,14.52
2022-09-23T17:08:42.827Z,14.38
2022-09-23T17:11:11.133Z,14.27
2022-09-23T17:13:41.237Z,14.21
2022-09-23T17:16:11.815Z,14.17
2022-09-23T17:18:39.682Z,14.13
2022-09-23T17:21:08.598Z,14.09
2022-09-23T17:23:37.176Z,14.07
2022-09-23T17:26:05.508Z,14.05
2022-09-23T17:28:33.488Z,14.05
2022-09-23T17:31:03.822Z,14.04
2022-09-23T17:33:35.239Z,14.03
2022-09-23T17:36:07.788Z,14.02
2022-09-23T17:38:36.110Z,14.00
2022-09-23T17:41:04.857Z,13.98
2022-09-23T17:43:33.536Z,13.94
2022-09-23T17:46:06.382Z,13.91
2022-09-23T17:48:36.003Z,13.83
2022-09-23T17:51:06.451Z,13.74
2022-09-23T17:53:37.079Z,13.70
2022-09-23T17:56:08.292Z,13.67
2022-09-23T17:58:37.524Z,13.63
2022-09-23T18:01:12.475Z,13.61
2022-09-23T18:03:43.479Z,13.58
2022-09-23T18:06:19.550Z,13.54
2022-09-23T18:08:49.286Z,13.53
2022-09-23T18:11:25.413Z,13.51
2022-09-23T18:14:01.286Z,13.51
2022-09-23T18:16:31.256Z,13.51
2022-09-23T18:19:00.710Z,13.53
2022-09-23T18:21:31.589Z,13.53
2022-09-23T18:24:28.057Z,13.46
2022-09-23T18:26:49.783Z,13.36
2022-09-23T18:29:18.616Z,13.35
2022-09-23T18:31:51.112Z,13.30
2022-09-23T18:34:20.448Z,13.20
2022-09-23T18:36:48.409Z,13.16
2022-09-23T18:39:16.738Z,13.11
2022-09-23T18:41:45.173Z,13.02
2022-09-23T18:44:13.090Z,12.92
2022-09-23T18:46:40.873Z,12.86
2022-09-23T18:49:27.751Z,12.79
2022-09-23T18:51:57.436Z,12.71
2022-09-23T18:54:28.471Z,12.67
2022-09-23T18:56:56.800Z,12.63
2022-09-23T18:59:28.024Z,12.59
2022-09-23T19:02:00.479Z,12.53
2022-09-23T19:04:29.098Z,12.46
2022-09-23T19:06:57.984Z,12.44
2022-09-23T19:09:26.272Z,12.44
2022-09-23T19:11:54.372Z,12.41
2022-09-23T19:14:22.320Z,12.39
2022-09-23T19:16:50.903Z,12.37
2022-09-23T19:19:18.837Z,12.33
2022-09-23T19:21:46.698Z,12.25
2022-09-23T19:24:19.853Z,12.18
2022-09-23T19:26:48.751Z,12.10
2022-09-23T19:29:22.019Z,12.01
2022-09-23T19:31:51.054Z,11.96
2022-09-23T19:34:23.771Z,11.93
2022-09-23T19:36:53.028Z,11.86
2022-09-23T19:39:23.452Z,11.84
2022-09-23T19:41:52.473Z,11.84
2022-09-23T19:44:20.545Z,11.80
2022-09-23T19:46:55.010Z,11.77
2022-09-23T19:49:25.886Z,11.74
2022-09-23T19:51:55.969Z,11.71
2022-09-23T19:54:27.470Z,11.68
2022-09-23T19:56:56.073Z,11.64
2022-09-23T19:59:26.555Z,11.62
2022-09-23T20:01:54.955Z,11.58
2022-09-23T20:04:23.516Z,11.55
2022-09-23T20:06:52.356Z,11.52
2022-09-23T20:09:20.811Z,11.51
2022-09-23T20:11:48.804Z,11.52
2022-09-23T20:14:17.933Z,11.55
2022-09-23T20:16:46.231Z,11.58
2022-09-23T20:19:14.281Z,11.58
2022-09-23T20:21:42.090Z,11.57
2022-09-23T20:24:11.929Z,11.56
2022-09-23T20:26:58.169Z,11.55
2022-09-23T20:29:26.449Z,11.48
2022-09-23T20:31:54.423Z,11.41
2022-09-23T20:34:22.565Z,11.31
2022-09-23T20:36:50.651Z,11.25
2022-09-23T20:39:18.434Z,11.22
2022-09-23T20:41:48.156Z,11.21
2022-09-23T20:44:16.105Z,11.15
2022-09-23T20:46:48.773Z,11.10
2022-09-23T20:49:17.688Z,11.08
2022-09-23T20:51:48.240Z,11.03
2022-09-23T20:54:21.590Z,11.01
2022-09-23T20:56:49.451Z,10.98
2022-09-23T20:59:18.502Z,10.96
2022-09-23T21:01:46.580Z,10.95
2022-09-23T21:04:14.521Z,10.99
2022-09-23T21:06:42.263Z,11.03
2022-09-23T21:09:10.045Z,11.03
2022-09-23T21:11:38.188Z,11.01
2022-09-23T21:14:06.072Z,10.98
2022-09-23T21:16:34.073Z,10.97
2022-09-23T21:19:03.349Z,10.97
2022-09-23T21:21:31.203Z,10.95
2022-09-23T21:24:17.167Z,10.93
2022-09-23T21:26:47.777Z,10.91
2022-09-23T21:29:16.214Z,10.89
2022-09-23T21:31:44.195Z,10.85
2022-09-23T21:34:12.682Z,10.82
2022-09-23T21:36:43.103Z,10.77
2022-09-23T21:39:11.507Z,10.74
2022-09-23T21:41:40.025Z,10.71
2022-09-23T21:44:08.515Z,10.67
2022-09-23T21:46:36.813Z,10.63
2022-09-23T21:49:05.334Z,10.61
2022-09-23T21:51:40.796Z,10.59
2022-09-23T21:54:15.522Z,10.58
2022-09-23T21:56:44.000Z,10.61
2022-09-23T21:59:12.031Z,10.62
2022-09-23T22:01:43.553Z,10.64
2022-09-23T22:04:16.990Z,10.61
2022-09-23T22:06:45.716Z,10.53
2022-09-23T22:09:16.899Z,10.46
2022-09-23T22:12:03.902Z,10.44
2022-09-23T22:14:32.011Z,10.42
2022-09-23T22:17:01.356Z,10.37
2022-09-23T22:19:35.462Z,10.36
2022-09-23T22:22:13.291Z,10.35
2022-09-23T22:24:44.954Z,10.33
2022-09-23T22:27:14.417Z,10.28
2022-09-23T22:30:00.795Z,10.19
2022-09-23T22:32:46.161Z,10.17
2022-09-23T22:35:19.176Z,10.17
2022-09-23T22:37:48.245Z,10.19
2022-09-23T22:40:16.366Z,10.22
2022-09-23T22:42:44.488Z,10.24
2022-09-23T22:45:13.435Z,10.22
2022-09-23T22:47:45.149Z,10.21
2022-09-23T22:50:14.687Z,10.22
2022-09-23T22:52:43.197Z,10.23
2022-09-23T22:55:11.741Z,10.23
2022-09-23T22:57:39.621Z,10.22
2022-09-23T23:01:43.644Z,10.22
2022-09-23T23:04:13.255Z,10.14
2022-09-23T23:06:44.006Z,10.05
2022-09-23T23:09:16.893Z,10.00
2022-09-23T23:11:47.427Z,9.99
2022-09-23T23:14:18.056Z,9.98
2022-09-23T23:16:46.580Z,9.97
2022-09-23T23:19:17.523Z,9.93
2022-09-23T23:21:48.815Z,9.94
2022-09-23T23:24:23.234Z,9.99
2022-09-23T23:26:53.564Z,10.06
2022-09-23T23:29:24.145Z,10.11
2022-09-23T23:31:52.612Z,10.17
2022-09-23T23:34:21.586Z,10.21
2022-09-23T23:36:54.738Z,10.21
2022-09-23T23:39:25.398Z,10.22
2022-09-23T23:41:59.404Z,10.22
2022-09-23T23:44:27.792Z,10.21
2022-09-23T23:46:56.017Z,10.18
2022-09-23T23:49:28.797Z,10.17
2022-09-23T23:51:59.280Z,10.16
2022-09-23T23:54:27.548Z,10.16
2022-09-23T23:56:55.748Z,10.18
2022-09-23T23:59:27.670Z,10.19
